createdAt,value
2019-02-24T00:00:19.223Z,102249.39
2019-02-24T00:04:27.659Z,102245.61
2019-02-24T00:08:34.575Z,102244.30
2019-02-24T00:12:41.541Z,102242.92
2019-02-24T00:16:48.456Z,102233.16
2019-02-24T00:20:55.388Z,102231.23
2019-02-24T00:25:02.311Z,102229.41
2019-02-24T00:29:09.112Z,102229.81
2019-02-24T00:33:16.067Z,102231.48
2019-02-24T00:37:22.932Z,102235.59
2019-02-24T00:41:29.792Z,102225.84
2019-02-24T00:45:36.696Z,102219.87
2019-02-24T00:49:43.520Z,102221.26
2019-02-24T00:53:50.376Z,102222.12
2019-02-24T00:57:57.253Z,102216.36
2019-02-24T01:02:04.237Z,102211.98
2019-02-24T01:06:11.053Z,102223.34
2019-02-24T01:10:17.975Z,102215.48
2019-02-24T01:14:24.821Z,102211.34
2019-02-24T01:18:31.637Z,102214.06
2019-02-24T01:22:38.571Z,102217.56
2019-02-24T01:26:45.505Z,102228.88
2019-02-24T01:30:52.492Z,102234.95
2019-02-24T01:34:59.341Z,102237.94
2019-02-24T01:39:06.781Z,102228.98
2019-02-24T01:43:14.327Z,102227.39
2019-02-24T01:47:21.158Z,102227.89
2019-02-24T01:51:28.500Z,102225.22
2019-02-24T01:55:35.391Z,102219.36
2019-02-24T01:59:42.201Z,102221.05
2019-02-24T02:03:49.229Z,102217.33
2019-02-24T02:07:56.129Z,102212.66
2019-02-24T02:12:03.079Z,102218.84
2019-02-24T02:16:09.983Z,102219.58
2019-02-24T02:20:16.891Z,102212.20
2019-02-24T02:24:23.826Z,102210.43
2019-02-24T02:28:30.647Z,102213.05
2019-02-24T02:32:37.631Z,102219.97
2019-02-24T02:36:44.441Z,102213.34
2019-02-24T02:40:51.341Z,102211.26
2019-02-24T02:44:58.263Z,102212.20
2019-02-24T02:49:05.135Z,102205.09
2019-02-24T02:53:11.980Z,102200.60
2019-02-24T02:57:18.807Z,102193.59
2019-02-24T03:01:25.713Z,102180.82
2019-02-24T03:05:32.862Z,102183.98
2019-02-24T03:09:39.830Z,102182.00
2019-02-24T03:13:46.702Z,102181.44
2019-02-24T03:17:53.561Z,102184.81
2019-02-24T03:22:00.377Z,102186.86
2019-02-24T03:26:07.319Z,102184.05
2019-02-24T03:30:14.158Z,102183.78
2019-02-24T03:34:21.022Z,102188.34
2019-02-24T03:38:27.859Z,102185.82
2019-02-24T03:42:34.762Z,102194.87
2019-02-24T03:46:41.679Z,102189.37
2019-02-24T03:50:48.494Z,102197.54
2019-02-24T03:54:55.295Z,102199.77
2019-02-24T03:59:02.161Z,102192.41
2019-02-24T04:03:09.007Z,102191.58
2019-02-24T04:07:15.832Z,102191.26
2019-02-24T04:11:22.667Z,102193.13
2019-02-24T04:15:29.550Z,102191.55
2019-02-24T04:19:36.420Z,102197.26
2019-02-24T04:23:43.225Z,102189.05
2019-02-24T04:27:50.043Z,102185.13
2019-02-24T04:31:56.962Z,102196.37
2019-02-24T04:36:03.792Z,102183.05
2019-02-24T04:40:11.726Z,102188.84
2019-02-24T04:44:18.549Z,102186.34
2019-02-24T04:48:26.425Z,102184.26
2019-02-24T04:52:34.376Z,102188.94
2019-02-24T04:56:41.275Z,102186.33
2019-02-24T05:00:48.165Z,102193.59
2019-02-24T05:04:56.181Z,102193.59
2019-02-24T05:09:03.176Z,102186.23
2019-02-24T05:13:11.887Z,102191.25
2019-02-24T05:17:18.734Z,102187.49
2019-02-24T05:21:25.558Z,102190.58
2019-02-24T05:25:32.456Z,102197.57
2019-02-24T05:29:45.970Z,102197.39
2019-02-24T05:33:47.941Z,102200.17
2019-02-24T05:37:54.885Z,102208.16
2019-02-24T05:42:01.709Z,102210.73
2019-02-24T05:46:08.869Z,102213.25
2019-02-24T05:50:15.839Z,102211.78
2019-02-24T05:54:22.863Z,102206.63
2019-02-24T05:58:29.956Z,102207.19
2019-02-24T06:02:37.210Z,102210.38
2019-02-24T06:06:44.075Z,102205.16
2019-02-24T06:10:50.892Z,102212.53
2019-02-24T06:14:57.901Z,102214.86
2019-02-24T06:19:04.845Z,102219.37
2019-02-24T06:23:11.717Z,102222.48
2019-02-24T06:27:18.758Z,102228.83
2019-02-24T06:31:25.643Z,102236.66
2019-02-24T06:35:32.507Z,102244.89
2019-02-24T06:39:39.505Z,102246.61
2019-02-24T06:43:46.516Z,102249.34
2019-02-24T06:47:53.819Z,102243.30
2019-02-24T06:52:00.758Z,102237.13
2019-02-24T06:56:07.785Z,102235.03
2019-02-24T07:00:16.511Z,102241.23
2019-02-24T07:04:23.303Z,102239.91
2019-02-24T07:08:30.503Z,102238.41
2019-02-24T07:12:37.520Z,102238.86
2019-02-24T07:16:44.890Z,102231.66
2019-02-24T07:20:53.289Z,102229.63
2019-02-24T07:25:00.293Z,102237.31
2019-02-24T07:29:07.343Z,102232.64
2019-02-24T07:33:14.273Z,102233.03
2019-02-24T07:37:21.236Z,102228.56
2019-02-24T07:41:30.433Z,102227.08
2019-02-24T07:50:55.678Z,102239.66
2019-02-24T07:55:02.549Z,102236.57
2019-02-24T07:59:09.547Z,102229.62
2019-02-24T08:03:16.448Z,102244.62
2019-02-24T08:07:23.501Z,102244.55
2019-02-24T08:11:30.691Z,102243.44
2019-02-24T08:15:37.525Z,102243.35
2019-02-24T08:19:44.538Z,102245.22
2019-02-24T08:23:51.598Z,102258.89
2019-02-24T08:27:58.809Z,102253.25
2019-02-24T08:33:26.600Z,102251.56
2019-02-24T08:37:33.614Z,102249.63
2019-02-24T08:41:40.849Z,102242.03
2019-02-24T08:45:47.987Z,102249.00
2019-02-24T08:49:55.302Z,102264.84
2019-02-24T08:54:02.377Z,102271.42
2019-02-24T08:58:09.573Z,102272.20
2019-02-24T09:02:16.930Z,102269.35
2019-02-24T09:06:24.206Z,102275.02
2019-02-24T09:10:33.592Z,102273.77
2019-02-24T09:14:41.018Z,102272.52
2019-02-24T09:18:55.617Z,102273.50
2019-02-24T09:23:05.230Z,102279.00
2019-02-24T09:27:12.648Z,102281.23
2019-02-24T09:31:19.990Z,102277.27
2019-02-24T09:35:27.082Z,102279.06
2019-02-24T09:39:36.264Z,102284.53
2019-02-24T09:43:54.355Z,102285.62
2019-02-24T09:48:01.797Z,102296.34
2019-02-24T09:52:10.125Z,102289.96
2019-02-24T09:56:21.974Z,102290.64
2019-02-24T10:00:29.405Z,102298.60
2019-02-24T10:04:36.463Z,102294.53
2019-02-24T10:08:44.765Z,102297.03
2019-02-24T10:12:51.788Z,102302.09
2019-02-24T10:16:58.745Z,102304.91
2019-02-24T10:21:05.919Z,102297.75
2019-02-24T10:25:12.968Z,102301.92
2019-02-24T10:29:20.026Z,102305.34
2019-02-24T10:33:26.990Z,102301.29
2019-02-24T10:37:34.216Z,102304.64
2019-02-24T10:41:41.260Z,102304.07
2019-02-24T10:45:48.217Z,102302.75
2019-02-24T10:49:55.289Z,102301.27
2019-02-24T10:54:02.232Z,102299.38
2019-02-24T10:58:09.194Z,102300.06
2019-02-24T11:02:16.354Z,102294.88
2019-02-24T11:06:23.453Z,102290.93
2019-02-24T11:10:30.536Z,102290.47
2019-02-24T11:14:37.684Z,102294.37
2019-02-24T11:18:44.748Z,102297.81
2019-02-24T11:22:51.862Z,102286.08
2019-02-24T11:26:59.848Z,102292.72
2019-02-24T11:31:07.118Z,102278.74
2019-02-24T11:35:14.160Z,102282.68
2019-02-24T11:39:21.251Z,102279.88
2019-02-24T11:43:28.423Z,102273.11
2019-02-24T11:47:35.560Z,102265.41
2019-02-24T11:51:42.659Z,102265.98
2019-02-24T11:55:49.714Z,102259.31
2019-02-24T11:59:57.175Z,102256.94
2019-02-24T12:04:04.166Z,102264.59
2019-02-24T12:08:11.044Z,102257.11
2019-02-24T12:12:18.241Z,102258.55
2019-02-24T12:16:25.401Z,102254.76
2019-02-24T12:20:32.488Z,102241.38
2019-02-24T12:24:39.533Z,102242.95
2019-02-24T12:28:47.707Z,102250.03
2019-02-24T12:32:54.682Z,102244.95
2019-02-24T12:37:01.833Z,102237.63
2019-02-24T12:41:08.994Z,102242.55
2019-02-24T12:45:17.745Z,102231.17
2019-02-24T12:49:24.776Z,102235.22
2019-02-24T12:53:31.912Z,102220.95
2019-02-24T12:57:38.802Z,102214.52
2019-02-24T13:01:46.027Z,102205.96
2019-02-24T13:05:53.293Z,102197.23
2019-02-24T13:10:00.354Z,102188.31
2019-02-24T13:14:07.427Z,102183.66
2019-02-24T13:18:15.331Z,102183.36
2019-02-24T13:22:22.476Z,102180.87
2019-02-24T13:26:29.443Z,102184.77
2019-02-24T13:30:36.636Z,102179.84
2019-02-24T13:34:43.605Z,102178.41
2019-02-24T13:38:52.303Z,102167.28
2019-02-24T13:42:59.226Z,102173.70
2019-02-24T13:47:06.408Z,102160.25
2019-02-24T13:51:13.520Z,102159.34
2019-02-24T13:55:20.405Z,102154.14
2019-02-24T13:59:27.510Z,102145.59
2019-02-24T14:03:34.447Z,102141.36
2019-02-24T14:07:41.346Z,102137.59
2019-02-24T14:11:48.485Z,102141.03
2019-02-24T14:15:55.346Z,102131.00
2019-02-24T14:20:02.657Z,102127.12
2019-02-24T14:24:09.688Z,102118.28
2019-02-24T14:28:16.702Z,102121.23
2019-02-24T14:32:32.709Z,102119.55
2019-02-24T14:36:32.486Z,102121.73
2019-02-24T14:40:39.474Z,102116.91
2019-02-24T14:44:46.437Z,102122.89
2019-02-24T14:48:53.387Z,102119.59
2019-02-24T14:53:00.402Z,102124.05
2019-02-24T14:57:07.612Z,102130.73
2019-02-24T15:01:14.581Z,102129.27
2019-02-24T15:05:21.570Z,102127.11
2019-02-24T15:09:28.500Z,102130.38
2019-02-24T15:13:35.512Z,102125.05
2019-02-24T15:17:42.422Z,102122.63
2019-02-24T15:21:49.307Z,102133.55
2019-02-24T15:25:56.131Z,102138.51
2019-02-24T15:30:03.259Z,102136.80
2019-02-24T15:34:10.637Z,102138.41
2019-02-24T15:38:19.069Z,102138.49
2019-02-24T15:42:26.051Z,102133.28
2019-02-24T15:46:32.946Z,102139.48
2019-02-24T15:50:39.793Z,102136.97
2019-02-24T15:54:46.741Z,102138.66
2019-02-24T15:58:53.774Z,102131.19
2019-02-24T16:03:01.989Z,102134.80
2019-02-24T16:07:10.454Z,102125.34
2019-02-24T16:11:17.323Z,102133.90
2019-02-24T16:15:24.246Z,102126.36
2019-02-24T16:19:31.165Z,102125.65
2019-02-24T16:23:38.275Z,102130.38
2019-02-24T16:27:45.487Z,102133.47
2019-02-24T16:31:52.380Z,102128.86
2019-02-24T16:35:59.387Z,102139.58
2019-02-24T16:40:08.037Z,102129.54
2019-02-24T16:44:15.153Z,102123.99
2019-02-24T16:48:21.983Z,102118.15
2019-02-24T16:52:28.921Z,102110.48
2019-02-24T16:56:36.261Z,102115.33
2019-02-24T17:00:43.213Z,102119.20
2019-02-24T17:04:50.254Z,102116.08
2019-02-24T17:09:00.561Z,102119.52
2019-02-24T17:13:05.777Z,102117.42
2019-02-24T17:17:12.781Z,102119.77
2019-02-24T17:21:19.601Z,102124.84
2019-02-24T17:25:26.662Z,102129.52
2019-02-24T17:29:33.559Z,102136.04
2019-02-24T17:33:40.582Z,102131.25
2019-02-24T17:37:50.182Z,102132.39
2019-02-24T17:41:57.233Z,102147.59
2019-02-24T17:46:04.382Z,102166.66
2019-02-24T17:50:12.866Z,102167.10
2019-02-24T17:54:19.838Z,102169.45
2019-02-24T17:58:26.940Z,102177.67
2019-02-24T18:02:33.998Z,102164.72
2019-02-24T18:06:40.976Z,102172.95
2019-02-24T18:10:48.040Z,102172.95
2019-02-24T18:14:55.129Z,102173.08
2019-02-24T18:19:02.103Z,102164.92
2019-02-24T18:23:08.977Z,102172.43
2019-02-24T18:27:16.036Z,102166.72
2019-02-24T18:31:23.016Z,102156.63
2019-02-24T18:35:29.987Z,102160.55
2019-02-24T18:39:37.158Z,102148.77
2019-02-24T18:43:45.947Z,102146.69
2019-02-24T18:47:52.955Z,102146.00
2019-02-24T18:51:59.961Z,102149.88
2019-02-24T18:56:08.148Z,102158.36
2019-02-24T19:00:16.861Z,102156.33
2019-02-24T19:04:23.917Z,102153.98
2019-02-24T19:08:30.893Z,102161.33
2019-02-24T19:12:37.838Z,102156.88
2019-02-24T19:16:44.847Z,102154.87
2019-02-24T19:20:51.999Z,102161.64
2019-02-24T19:24:58.845Z,102163.17
2019-02-24T19:29:05.734Z,102171.44
2019-02-24T19:33:12.622Z,102167.09
2019-02-24T19:37:19.605Z,102165.67
2019-02-24T19:41:26.528Z,102161.08
2019-02-24T19:45:33.520Z,102161.59
2019-02-24T19:49:41.925Z,102178.27
2019-02-24T19:53:48.847Z,102175.25
2019-02-24T19:57:55.801Z,102168.07
2019-02-24T20:02:02.722Z,102171.23
2019-02-24T20:06:09.581Z,102165.51
2019-02-24T20:10:19.135Z,102175.03
2019-02-24T20:14:26.164Z,102180.69
2019-02-24T20:18:33.021Z,102196.18
2019-02-24T20:22:39.832Z,102208.81
2019-02-24T20:26:46.806Z,102211.45
2019-02-24T20:30:54.212Z,102210.03
2019-02-24T20:35:01.274Z,102203.19
2019-02-24T20:39:08.930Z,102186.88
2019-02-24T20:43:16.014Z,102192.60
2019-02-24T20:47:22.939Z,102195.00
2019-02-24T20:51:29.804Z,102214.93
2019-02-24T20:55:36.704Z,102205.69
2019-02-24T20:59:43.694Z,102197.53
2019-02-24T21:03:50.651Z,102199.83
2019-02-24T21:07:57.721Z,102198.44
2019-02-24T21:12:04.740Z,102198.85
2019-02-24T21:16:11.530Z,102210.11
2019-02-24T21:20:28.472Z,102211.25
2019-02-24T21:24:35.293Z,102207.28
2019-02-24T21:28:42.336Z,102217.55
2019-02-24T21:32:49.146Z,102208.25
2019-02-24T21:36:56.091Z,102214.52
2019-02-24T21:41:04.101Z,102216.59
2019-02-24T21:45:16.798Z,102207.06
2019-02-24T21:49:23.863Z,102212.22
2019-02-24T21:53:30.826Z,102220.76
2019-02-24T21:57:38.325Z,102232.97
2019-02-24T22:01:47.292Z,102230.09
2019-02-24T22:05:55.459Z,102236.81
2019-02-24T22:10:02.444Z,102232.73
2019-02-24T22:14:09.389Z,102232.63
2019-02-24T22:18:16.250Z,102216.22
2019-02-24T22:22:23.290Z,102208.30
2019-02-24T22:26:30.205Z,102211.75
2019-02-24T22:30:37.249Z,102206.56
2019-02-24T22:34:44.296Z,102207.75
2019-02-24T22:38:51.190Z,102202.95
2019-02-24T22:42:58.117Z,102214.05
2019-02-24T22:47:05.154Z,102221.00
2019-02-24T22:51:12.099Z,102222.16
2019-02-24T22:55:19.038Z,102218.45
2019-02-24T22:59:25.893Z,102207.08
2019-02-24T23:03:38.656Z,102202.55
2019-02-24T23:07:45.584Z,102198.94
2019-02-24T23:11:52.591Z,102204.77
2019-02-24T23:16:00.006Z,102198.11
2019-02-24T23:20:07.322Z,102196.41
2019-02-24T23:24:14.156Z,102200.23
2019-02-24T23:28:21.121Z,102201.64
2019-02-24T23:32:28.051Z,102205.83
2019-02-24T23:36:34.996Z,102199.57
2019-02-24T23:40:41.948Z,102211.53
2019-02-24T23:44:48.881Z,102212.37
2019-02-24T23:48:57.088Z,102209.59
2019-02-24T23:53:04.014Z,102215.89
2019-02-24T23:57:10.843Z,102221.31
